Time;durP1;ratioP1;P1;durP2;ratioP2;P2;SDS_P1;SDS_P2;PMS_P1;PMS_P2;Temp;Humidity;BMP_temperature;BMP_pressure;BME280_temperature;BME280_humidity;BME280_pressure;Samples;Min_cycle;Max_cycle;Signal;HPM_P1;HPM_P2
2024/01/21 00:02:26;;;;;;;26.35;19.92;;;-3.60;99.90;;;;;;5025660;28;20221;-65
2024/01/21 00:04:54;;;;;;;21.73;19.27;;;-3.30;99.90;;;;;;5031516;28;20200;-65
2024/01/21 00:07:20;;;;;;;26.55;19.45;;;-3.30;99.90;;;;;;5033721;28;20209;-64
2024/01/21 00:09:47;;;;;;;19.58;16.73;;;-3.50;99.90;;;;;;5025322;28;20208;-66
2024/01/21 00:12:14;;;;;;;22.48;17.23;;;-3.50;99.90;;;;;;5033835;28;20224;-65
2024/01/21 00:14:41;;;;;;;22.83;17.70;;;-3.00;99.90;;;;;;5017440;28;20204;-65
2024/01/21 00:17:08;;;;;;;20.08;14.65;;;-3.40;99.90;;;;;;5033877;28;20206;-65
2024/01/21 00:19:35;;;;;;;21.00;15.50;;;-3.30;99.90;;;;;;5033189;28;20219;-65
2024/01/21 00:22:03;;;;;;;24.75;14.65;;;-3.00;99.90;;;;;;5029628;28;20225;-65
2024/01/21 00:24:30;;;;;;;20.52;12.85;;;-2.90;99.90;;;;;;5015321;28;20202;-65
2024/01/21 00:26:56;;;;;;;21.02;12.25;;;-2.90;99.90;;;;;;5024693;28;20660;-64
2024/01/21 00:29:24;;;;;;;16.55;10.88;;;-2.90;99.90;;;;;;5033250;28;20211;-65
2024/01/21 00:31:51;;;;;;;21.10;9.95;;;-3.20;99.90;;;;;;5031074;28;20203;-65
2024/01/21 00:34:17;;;;;;;15.57;10.80;;;-2.90;99.90;;;;;;5027405;28;20207;-65
2024/01/21 00:36:44;;;;;;;20.38;12.07;;;-3.30;99.90;;;;;;5024329;28;20203;-65
2024/01/21 00:39:12;;;;;;;13.85;10.32;;;-2.80;99.90;;;;;;5028248;28;20222;-65
2024/01/21 00:41:39;;;;;;;14.80;9.52;;;-3.10;99.90;;;;;;5021252;28;20232;-65
2024/01/21 00:44:06;;;;;;;20.60;10.35;;;-2.80;99.90;;;;;;5025507;28;20206;-66
2024/01/21 00:46:33;;;;;;;22.50;12.50;;;-2.80;99.90;;;;;;5024852;28;20209;-65
2024/01/21 00:48:59;;;;;;;19.13;12.38;;;-2.70;99.90;;;;;;5021328;28;20205;-65
2024/01/21 00:51:26;;;;;;;18.52;11.45;;;-2.80;99.90;;;;;;5027844;28;20198;-65
2024/01/21 00:53:53;;;;;;;17.75;10.50;;;-3.00;99.90;;;;;;5024570;28;20242;-65
2024/01/21 00:56:21;;;;;;;20.55;11.80;;;-2.80;99.90;;;;;;5032825;28;20289;-65
2024/01/21 00:58:48;;;;;;;21.42;12.80;;;-3.10;99.90;;;;;;5022680;28;20218;-65
2024/01/21 01:01:15;;;;;;;24.80;9.98;;;-3.20;99.90;;;;;;5018087;28;20199;-66
2024/01/21 01:03:41;;;;;;;18.42;11.27;;;-3.10;99.90;;;;;;5031661;28;20221;-64
2024/01/21 01:06:08;;;;;;;21.92;10.35;;;-2.60;99.90;;;;;;5025161;28;20208;-65
2024/01/21 01:08:35;;;;;;;20.33;11.40;;;-2.90;99.90;;;;;;5028707;28;20210;-65
2024/01/21 01:11:02;;;;;;;21.10;9.88;;;-2.60;99.90;;;;;;5008250;28;20202;-65
2024/01/21 01:13:30;;;;;;;16.55;11.77;;;-2.60;99.90;;;;;;5024040;28;20220;-65
2024/01/21 01:15:59;;;;;;;18.45;10.90;;;-2.60;99.90;;;;;;5015404;28;20234;-65
2024/01/21 01:18:25;;;;;;;22.08;12.02;;;-2.60;99.90;;;;;;5025305;28;20597;-66
2024/01/21 01:20:53;;;;;;;19.67;10.30;;;-2.60;99.90;;;;;;5022907;28;20224;-65
2024/01/21 01:23:20;;;;;;;25.00;13.50;;;-2.60;99.90;;;;;;5032455;28;20221;-65
2024/01/21 01:25:47;;;;;;;19.48;11.25;;;-2.50;99.90;;;;;;5016948;28;20202;-65
2024/01/21 01:28:14;;;;;;;23.88;12.82;;;-2.60;99.90;;;;;;5032152;28;20207;-65
2024/01/21 01:30:43;;;;;;;19.80;10.95;;;-2.50;99.90;;;;;;5030578;28;20202;-64
2024/01/21 01:33:10;;;;;;;23.67;11.88;;;-2.70;99.90;;;;;;5032398;28;20274;-65
2024/01/21 01:35:36;;;;;;;25.20;13.90;;;-2.50;99.90;;;;;;5024023;28;20584;-65
2024/01/21 01:38:05;;;;;;;16.55;11.07;;;-2.50;99.90;;;;;;5024048;28;20830;-65
2024/01/21 01:40:32;;;;;;;21.45;13.23;;;-2.50;99.90;;;;;;5028331;28;20227;-65
2024/01/21 01:43:02;;;;;;;20.80;12.73;;;-2.80;99.90;;;;;;5032070;28;20605;-65
2024/01/21 01:45:29;;;;;;;19.05;12.30;;;-2.50;99.90;;;;;;5023706;28;20233;-65
2024/01/21 01:47:57;;;;;;;23.02;12.68;;;-2.80;99.90;;;;;;5031816;28;20205;-65
2024/01/21 01:50:25;;;;;;;22.48;11.70;;;-2.80;99.90;;;;;;5032143;28;20230;-65
2024/01/21 01:52:52;;;;;;;22.85;13.85;;;-2.40;99.90;;;;;;5029761;28;20244;-65
2024/01/21 01:55:20;;;;;;;27.65;13.35;;;-2.40;99.90;;;;;;5026347;28;20214;-65
2024/01/21 01:57:47;;;;;;;27.83;14.77;;;-2.40;99.90;;;;;;5023446;28;20200;-65
2024/01/21 02:00:15;;;;;;;26.73;13.27;;;-2.40;99.90;;;;;;5032122;28;20230;-65
2024/01/21 02:02:42;;;;;;;19.33;12.02;;;-2.30;99.90;;;;;;5022470;28;20227;-65
2024/01/21 02:05:11;;;;;;;24.70;13.60;;;-2.30;99.90;;;;;;5017132;28;20204;-65
2024/01/21 02:07:38;;;;;;;25.20;13.77;;;-2.30;99.90;;;;;;5017523;28;20570;-65
2024/01/21 02:10:06;;;;;;;23.27;14.68;;;-2.30;99.90;;;;;;5028635;28;20191;-65
2024/01/21 02:12:33;;;;;;;20.08;12.02;;;-2.30;99.90;;;;;;5020036;28;20598;-65
2024/01/21 02:15:00;;;;;;;20.23;13.73;;;-2.70;99.90;;;;;;5020939;28;20210;-65
2024/01/21 02:17:26;;;;;;;23.88;13.80;;;-2.30;99.90;;;;;;5021375;28;20205;-66
2024/01/21 02:19:53;;;;;;;20.33;13.57;;;-2.50;99.90;;;;;;5025922;28;20225;-65
2024/01/21 02:22:24;;;;;;;21.95;14.52;;;-2.50;99.90;;;;;;5035729;28;20223;-65
2024/01/21 02:24:52;;;;;;;21.45;14.10;;;-2.30;99.90;;;;;;5027375;28;20227;-65
2024/01/21 02:27:19;;;;;;;25.73;13.32;;;-2.30;99.90;;;;;;5022698;28;20192;-65
2024/01/21 02:29:46;;;;;;;22.20;12.02;;;-2.30;99.90;;;;;;5025426;28;20204;-65
2024/01/21 02:32:13;;;;;;;22.75;14.43;;;-2.30;99.90;;;;;;5035913;28;20222;-65
2024/01/21 02:34:39;;;;;;;23.80;13.20;;;-2.30;99.90;;;;;;5035488;28;20200;-65
2024/01/21 02:37:06;;;;;;;24.15;14.05;;;-2.30;99.90;;;;;;5023866;28;20194;-65
2024/01/21 02:39:33;;;;;;;18.80;13.88;;;-2.30;99.90;;;;;;5022884;28;20199;-65
2024/01/21 02:42:01;;;;;;;23.13;12.95;;;-2.20;99.90;;;;;;5035309;28;20233;-65
2024/01/21 02:44:28;;;;;;;24.50;13.98;;;-2.20;99.90;;;;;;5027223;28;20686;-64
2024/01/21 02:46:54;;;;;;;27.17;13.95;;;-2.20;99.90;;;;;;5026944;28;20209;-65
2024/01/21 02:49:24;;;;;;;21.27;12.35;;;-2.30;99.90;;;;;;5020634;28;20203;-65
2024/01/21 02:51:51;;;;;;;22.13;13.75;;;-2.60;99.90;;;;;;5031298;28;20682;-65
2024/01/21 02:54:17;;;;;;;26.67;13.70;;;-2.60;99.90;;;;;;5029014;28;20238;-65
2024/01/21 02:56:44;;;;;;;21.85;12.95;;;-2.40;99.90;;;;;;5027451;28;20194;-64
2024/01/21 02:59:12;;;;;;;22.80;15.32;;;-2.40;99.90;;;;;;5027999;28;20237;-65
2024/01/21 03:01:39;;;;;;;21.70;12.32;;;-2.30;99.90;;;;;;5018177;28;20600;-65
2024/01/21 03:04:06;;;;;;;21.10;14.13;;;-2.60;99.90;;;;;;5027690;28;20202;-65
2024/01/21 03:06:33;;;;;;;26.35;15.18;;;-2.40;99.90;;;;;;5026824;28;20197;-65
2024/01/21 03:08:59;;;;;;;23.10;12.65;;;-2.70;99.90;;;;;;5034504;28;20703;-65
2024/01/21 03:11:26;;;;;;;22.20;13.43;;;-2.40;99.90;;;;;;5034740;28;20205;-65
2024/01/21 03:13:53;;;;;;;25.38;13.48;;;-2.40;99.90;;;;;;5032467;28;20217;-64
2024/01/21 03:16:21;;;;;;;23.10;12.48;;;-2.40;99.90;;;;;;5023082;28;20207;-65
2024/01/21 03:18:48;;;;;;;25.95;12.70;;;-2.80;99.90;;;;;;5032382;28;20213;-65
2024/01/21 03:21:14;;;;;;;21.60;12.73;;;-2.40;99.90;;;;;;5034422;28;20222;-65
2024/01/21 03:23:41;;;;;;;22.27;13.50;;;-2.50;99.90;;;;;;5026386;28;20218;-65
2024/01/21 03:26:08;;;;;;;19.45;10.65;;;-2.80;99.90;;;;;;5034446;28;20205;-64
2024/01/21 03:28:35;;;;;;;24.88;12.75;;;-2.70;99.90;;;;;;5017628;28;20197;-64
2024/01/21 03:31:02;;;;;;;19.50;10.90;;;-2.30;99.90;;;;;;5018278;28;20204;-65
2024/01/21 03:33:31;;;;;;;23.27;13.30;;;-2.20;99.90;;;;;;5027301;28;20243;-65
2024/01/21 03:35:58;;;;;;;20.05;12.95;;;-2.60;99.90;;;;;;5033703;28;20207;-65
2024/01/21 03:38:25;;;;;;;22.40;11.87;;;-2.30;99.90;;;;;;5027648;28;20207;-65
2024/01/21 03:40:52;;;;;;;24.92;12.55;;;-2.10;99.90;;;;;;5024953;28;20486;-65
2024/01/21 03:43:18;;;;;;;26.88;11.30;;;-2.00;99.90;;;;;;5026286;28;20234;-65
2024/01/21 03:45:45;;;;;;;22.83;11.27;;;-2.00;99.90;;;;;;5018471;28;20579;-65
2024/01/21 03:48:12;;;;;;;21.50;11.98;;;-2.40;99.90;;;;;;5019137;28;20223;-65
2024/01/21 03:50:40;;;;;;;23.13;10.77;;;-2.00;99.90;;;;;;5021857;28;20197;-65
2024/01/21 03:53:07;;;;;;;19.75;12.48;;;-2.00;99.90;;;;;;5026430;28;20227;-65
2024/01/21 03:55:34;;;;;;;24.70;15.20;;;-2.00;99.90;;;;;;5033997;28;20203;-65
2024/01/21 03:58:00;;;;;;;21.20;12.43;;;-2.00;99.90;;;;;;5030383;28;20587;-65
2024/01/21 04:00:27;;;;;;;27.70;13.70;;;-2.00;99.90;;;;;;5021172;28;20232;-65
2024/01/21 04:02:54;;;;;;;21.65;12.55;;;-2.10;99.90;;;;;;5033537;28;20480;-65
2024/01/21 04:05:21;;;;;;;21.70;11.37;;;-2.10;99.90;;;;;;5028063;28;20205;-65
2024/01/21 04:07:49;;;;;;;18.83;11.13;;;-2.50;99.90;;;;;;5023447;28;20460;-65
2024/01/21 04:10:16;;;;;;;21.60;12.05;;;-2.50;99.90;;;;;;5020216;28;20193;-65
2024/01/21 04:12:42;;;;;;;17.15;10.90;;;-2.60;99.90;;;;;;5029452;28;20217;-65
2024/01/21 04:15:09;;;;;;;24.95;11.50;;;-2.30;99.90;;;;;;5025404;28;20199;-65
2024/01/21 04:17:36;;;;;;;18.77;10.77;;;-2.20;99.90;;;;;;5024907;28;20199;-65
2024/01/21 04:20:07;;;;;;;26.85;13.35;;;-2.20;99.90;;;;;;5025555;28;20223;-66
2024/01/21 04:22:34;;;;;;;23.83;14.23;;;-2.10;99.90;;;;;;5025759;28;20226;-65
2024/01/21 04:25:02;;;;;;;22.50;12.68;;;-2.00;99.90;;;;;;5033367;28;20199;-65
2024/01/21 04:27:29;;;;;;;23.90;11.80;;;-2.00;99.90;;;;;;5017879;28;20579;-65
2024/01/21 04:29:56;;;;;;;42.80;24.48;;;-2.00;99.90;;;;;;5023960;28;20208;-65
2024/01/21 04:32:23;;;;;;;21.65;13.57;;;-1.90;99.90;;;;;;5026761;28;20226;-65
2024/01/21 04:34:50;;;;;;;30.27;19.23;;;-1.90;99.90;;;;;;5024330;28;20205;-65
2024/01/21 04:37:16;;;;;;;22.38;12.30;;;-1.90;99.90;;;;;;5030659;28;20480;-65
2024/01/21 04:39:43;;;;;;;19.08;10.05;;;-1.80;99.90;;;;;;5028159;28;20580;-65
2024/01/21 04:42:11;;;;;;;19.73;12.32;;;-1.80;99.90;;;;;;5025503;28;20607;-65
2024/01/21 04:44:38;;;;;;;21.57;12.60;;;-1.80;99.90;;;;;;5024609;28;20195;-65
2024/01/21 04:47:05;;;;;;;23.73;11.75;;;-1.70;99.90;;;;;;5020625;28;20846;-65
2024/01/21 04:49:31;;;;;;;18.73;11.23;;;-1.70;99.90;;;;;;5013123;28;20200;-65
2024/01/21 04:51:59;;;;;;;22.20;12.00;;;-2.10;99.90;;;;;;5020007;28;20472;-65
2024/01/21 04:54:26;;;;;;;22.40;11.70;;;-1.60;99.90;;;;;;5020901;28;20489;-65
2024/01/21 04:56:53;;;;;;;19.75;11.60;;;-1.60;99.90;;;;;;5020801;28;20465;-66
2024/01/21 04:59:21;;;;;;;20.33;12.05;;;-1.70;99.90;;;;;;5018048;28;20203;-65
2024/01/21 05:01:49;;;;;;;18.13;11.50;;;-1.60;99.90;;;;;;5022837;28;20235;-65
2024/01/21 05:04:16;;;;;;;17.70;10.67;;;-1.70;99.90;;;;;;5020948;28;20463;-65
2024/01/21 05:06:43;;;;;;;26.33;13.00;;;-1.70;99.90;;;;;;5021126;28;20552;-65
2024/01/21 05:09:10;;;;;;;18.53;11.07;;;-1.70;99.90;;;;;;5018818;28;20466;-65
2024/01/21 05:11:37;;;;;;;20.90;10.27;;;-1.70;99.90;;;;;;5023911;28;20496;-65
2024/01/21 05:14:04;;;;;;;21.00;11.70;;;-1.70;99.90;;;;;;5024334;28;20651;-65
2024/01/21 05:16:32;;;;;;;21.88;12.07;;;-1.70;99.90;;;;;;5027951;28;20283;-65
2024/01/21 05:18:59;;;;;;;20.70;12.02;;;-1.80;99.90;;;;;;5014622;28;20203;-65
2024/01/21 05:21:26;;;;;;;18.07;11.13;;;-1.80;99.90;;;;;;5014139;28;20219;-65
2024/01/21 05:23:53;;;;;;;26.43;11.80;;;-1.80;99.90;;;;;;5019006;28;20984;-65
2024/01/21 05:26:20;;;;;;;23.55;14.80;;;-1.80;99.90;;;;;;5032053;28;20937;-65
2024/01/21 05:28:47;;;;;;;21.25;11.55;;;-1.80;99.90;;;;;;5032141;28;20205;-65
2024/01/21 05:31:14;;;;;;;15.90;9.10;;;-1.80;99.90;;;;;;5027336;28;20199;-66
2024/01/21 05:33:42;;;;;;;18.17;11.97;;;-1.80;99.90;;;;;;5028868;28;20483;-65
2024/01/21 05:36:09;;;;;;;19.10;12.23;;;-1.80;99.90;;;;;;5012517;28;20462;-65
2024/01/21 05:38:37;;;;;;;18.07;10.33;;;-1.80;99.90;;;;;;5012281;28;20458;-65
2024/01/21 05:41:04;;;;;;;13.20;9.00;;;-1.80;99.90;;;;;;5011548;28;21017;-67
2024/01/21 05:43:31;;;;;;;28.57;14.30;;;-1.70;99.90;;;;;;5011525;28;20465;-65
2024/01/21 05:45:58;;;;;;;20.80;10.70;;;-1.80;99.90;;;;;;5020490;28;20492;-65
2024/01/21 05:48:24;;;;;;;22.25;10.80;;;-1.80;99.90;;;;;;5019653;28;20456;-65
2024/01/21 05:50:53;;;;;;;21.80;9.95;;;-1.80;99.90;;;;;;5025877;28;20196;-65
2024/01/21 05:53:19;;;;;;;18.83;10.40;;;-1.80;99.90;;;;;;5023869;28;20590;-64
2024/01/21 05:55:47;;;;;;;15.37;8.77;;;-1.80;99.90;;;;;;5024607;28;20941;-65
2024/01/21 05:58:16;;;;;;;20.08;9.35;;;-1.90;99.90;;;;;;5024565;28;20462;-65
2024/01/21 06:00:43;;;;;;;20.33;11.30;;;-1.90;99.90;;;;;;5029360;28;20591;-66
2024/01/21 06:03:10;;;;;;;23.73;10.00;;;-1.80;99.90;;;;;;5023159;28;20247;-66
2024/01/21 06:05:36;;;;;;;19.17;11.13;;;-1.90;99.90;;;;;;5014215;28;20192;-65
2024/01/21 06:08:05;;;;;;;13.50;8.67;;;-1.80;99.90;;;;;;5003052;28;20458;-65
2024/01/21 06:10:32;;;;;;;21.20;10.60;;;-1.80;99.90;;;;;;5011964;28;20453;-66
2024/01/21 06:12:59;;;;;;;18.77;9.40;;;-1.80;99.90;;;;;;5013173;28;20486;-65
2024/01/21 06:15:25;;;;;;;16.23;10.23;;;-1.80;99.90;;;;;;5012480;28;20455;-65
2024/01/21 06:17:52;;;;;;;15.50;10.63;;;-1.80;99.90;;;;;;5014461;28;20205;-65
2024/01/21 06:20:20;;;;;;;17.38;9.35;;;-1.80;99.90;;;;;;5017060;28;20861;-64
2024/01/21 06:22:46;;;;;;;17.67;8.93;;;-1.80;99.90;;;;;;5020607;28;20221;-64
2024/01/21 06:25:14;;;;;;;16.35;10.57;;;-1.80;99.90;;;;;;5023356;28;20451;-65
2024/01/21 06:27:41;;;;;;;12.27;9.25;;;-1.80;99.90;;;;;;5018743;28;20196;-65
2024/01/21 06:30:12;;;;;;;17.73;10.45;;;-1.80;99.90;;;;;;5027115;28;20199;-65
2024/01/21 06:32:39;;;;;;;18.77;10.52;;;-1.70;99.90;;;;;;5027264;28;20225;-65
2024/01/21 06:35:06;;;;;;;20.83;11.20;;;-1.70;99.90;;;;;;5022784;28;20205;-65
2024/01/21 06:37:33;;;;;;;18.05;10.00;;;-1.70;99.90;;;;;;5019849;28;20208;-64
2024/01/21 06:40:00;;;;;;;20.87;9.50;;;-1.60;99.90;;;;;;5022120;28;20676;-65
2024/01/21 06:42:28;;;;;;;14.30;8.90;;;-1.60;99.90;;;;;;5020046;28;20479;-65
2024/01/21 06:44:55;;;;;;;14.38;7.93;;;-1.50;99.90;;;;;;5019195;28;20457;-63
2024/01/21 06:47:22;;;;;;;21.83;12.50;;;-1.50;99.90;;;;;;5014927;28;20195;-65
2024/01/21 06:49:49;;;;;;;14.87;9.13;;;-1.50;99.90;;;;;;5012526;28;20462;-65
2024/01/21 06:52:15;;;;;;;16.60;9.43;;;-1.50;99.90;;;;;;5019819;28;20472;-64
2024/01/21 06:54:42;;;;;;;14.87;8.80;;;-1.50;99.90;;;;;;5021556;28;20467;-64
2024/01/21 06:57:09;;;;;;;19.13;11.93;;;-1.50;99.90;;;;;;5018926;28;20457;-66
2024/01/21 06:59:37;;;;;;;18.60;9.90;;;-1.50;99.90;;;;;;5011077;28;20451;-64
2024/01/21 07:02:04;;;;;;;20.95;10.95;;;-1.50;99.90;;;;;;5017636;28;20533;-64
2024/01/21 07:04:31;;;;;;;17.40;10.17;;;-1.40;99.90;;;;;;5018683;28;20662;-67
2024/01/21 07:06:58;;;;;;;19.63;9.23;;;-1.40;99.90;;;;;;5020692;28;20466;-64
2024/01/21 07:09:25;;;;;;;12.80;8.07;;;-1.40;99.90;;;;;;5019934;28;20832;-65
2024/01/21 07:11:52;;;;;;;21.13;11.70;;;-1.40;99.90;;;;;;5030057;28;20452;-65
2024/01/21 07:14:18;;;;;;;19.67;11.43;;;-1.40;99.90;;;;;;5034852;28;20459;-65
2024/01/21 07:16:46;;;;;;;17.17;11.68;;;-1.40;99.90;;;;;;5028518;28;20457;-65
2024/01/21 07:19:14;;;;;;;20.30;9.80;;;-1.40;99.90;;;;;;5015931;28;20222;-65
2024/01/21 07:21:41;;;;;;;21.10;9.67;;;-1.40;99.90;;;;;;5020217;28;20851;-65
2024/01/21 07:24:08;;;;;;;18.97;10.47;;;-1.40;99.90;;;;;;5018447;28;20451;-65
2024/01/21 07:26:35;;;;;;;19.57;10.37;;;-1.40;99.90;;;;;;5028845;28;20454;-64
2024/01/21 07:29:02;;;;;;;17.27;11.00;;;-1.40;99.90;;;;;;5028721;28;20451;-65
2024/01/21 07:31:29;;;;;;;17.97;10.33;;;-1.40;99.90;;;;;;5016917;28;20454;-65
2024/01/21 07:33:57;;;;;;;16.73;10.23;;;-1.40;99.90;;;;;;5019917;28;20475;-65
2024/01/21 07:36:24;;;;;;;18.57;9.47;;;-1.30;99.90;;;;;;5023016;28;20453;-65
2024/01/21 07:38:51;;;;;;;15.33;10.73;;;-1.30;99.90;;;;;;5018717;28;20460;-66
2024/01/21 07:41:18;;;;;;;18.57;8.87;;;-1.30;99.90;;;;;;5020507;28;20489;-64
2024/01/21 07:43:44;;;;;;;22.30;10.40;;;-1.20;99.90;;;;;;5018939;28;20472;-64
2024/01/21 07:46:12;;;;;;;18.30;10.13;;;-1.20;99.90;;;;;;5020025;28;20447;-65
2024/01/21 07:48:38;;;;;;;16.10;8.80;;;-1.20;99.90;;;;;;5023885;28;20212;-64
2024/01/21 07:51:07;;;;;;;21.87;10.80;;;-1.20;99.90;;;;;;5024108;28;20455;-65
2024/01/21 07:53:33;;;;;;;20.07;10.37;;;-1.20;99.90;;;;;;5025399;28;20480;-64
2024/01/21 07:56:01;;;;;;;19.63;9.53;;;-1.20;99.90;;;;;;5019100;28;20526;-66
2024/01/21 07:58:28;;;;;;;20.57;11.30;;;-1.20;99.90;;;;;;5019772;28;20940;-65
2024/01/21 08:00:55;;;;;;;18.73;11.07;;;-1.20;99.90;;;;;;5014772;28;20453;-65
2024/01/21 08:03:22;;;;;;;14.97;9.43;;;-1.20;99.90;;;;;;5021456;28;20580;-66
2024/01/21 08:05:48;;;;;;;15.63;10.13;;;-1.10;99.90;;;;;;5019024;28;20453;-64
2024/01/21 08:08:17;;;;;;;19.93;11.33;;;-1.10;99.90;;;;;;5027229;28;20452;-64
2024/01/21 08:10:43;;;;;;;14.17;9.60;;;-1.00;99.90;;;;;;5025826;28;20457;-65
2024/01/21 08:13:10;;;;;;;13.90;8.80;;;-1.00;99.90;;;;;;5026360;28;20475;-65
2024/01/21 08:15:37;;;;;;;15.75;9.13;;;-0.90;99.90;;;;;;5024872;28;20482;-64
2024/01/21 08:18:05;;;;;;;17.53;11.47;;;-0.80;99.90;;;;;;5032882;28;20229;-65
2024/01/21 08:20:32;;;;;;;14.43;10.03;;;-0.80;99.90;;;;;;5015054;28;20786;-65
2024/01/21 08:23:00;;;;;;;21.63;9.43;;;-0.70;99.90;;;;;;5021226;28;20487;-64
2024/01/21 08:25:28;;;;;;;21.53;10.17;;;-0.70;99.90;;;;;;5010949;28;20449;-65
2024/01/21 08:27:55;;;;;;;18.03;9.53;;;-0.60;99.90;;;;;;5013141;28;20457;-65
2024/01/21 08:30:22;;;;;;;16.10;10.70;;;-0.50;99.90;;;;;;5011285;28;20451;-65
2024/01/21 08:32:49;;;;;;;16.92;9.55;;;-0.50;99.90;;;;;;5013139;28;20477;-65
2024/01/21 08:35:17;;;;;;;14.70;9.30;;;-0.40;99.90;;;;;;5025653;28;20196;-66
2024/01/21 08:37:44;;;;;;;20.40;9.90;;;-0.40;99.90;;;;;;5016966;28;20446;-65
2024/01/21 08:40:12;;;;;;;18.93;10.33;;;-0.40;99.90;;;;;;5012087;28;20456;-65
2024/01/21 08:42:40;;;;;;;19.02;12.05;;;-0.30;99.90;;;;;;5012810;28;21013;-64
2024/01/21 08:45:08;;;;;;;17.00;8.90;;;-0.20;99.90;;;;;;5018262;28;20195;-67
2024/01/21 08:47:35;;;;;;;14.50;8.23;;;-0.20;99.90;;;;;;5017148;28;20458;-64
2024/01/21 08:50:02;;;;;;;20.30;10.30;;;-0.10;99.90;;;;;;5032609;28;20453;-65
2024/01/21 08:52:29;;;;;;;18.10;9.90;;;0.00;99.90;;;;;;5031752;28;20472;-65
2024/01/21 08:54:56;;;;;;;16.40;8.53;;;0.00;99.90;;;;;;5023834;28;20460;-65
2024/01/21 08:57:23;;;;;;;13.80;7.43;;;0.10;99.90;;;;;;5031461;28;20453;-64
2024/01/21 08:59:51;;;;;;;19.60;7.63;;;0.30;99.90;;;;;;5022878;28;20453;-65
2024/01/21 09:02:19;;;;;;;15.43;10.03;;;0.70;98.50;;;;;;5024197;28;20541;-66
2024/01/21 09:04:46;;;;;;;13.43;8.77;;;0.80;99.70;;;;;;5032808;28;21006;-65
2024/01/21 09:07:13;;;;;;;12.90;7.80;;;0.90;99.00;;;;;;5024230;28;20544;-66
2024/01/21 09:09:40;;;;;;;16.13;8.93;;;1.00;99.90;;;;;;5015931;28;20465;-65
2024/01/21 09:12:08;;;;;;;25.87;10.30;;;1.10;99.90;;;;;;5011846;28;20460;-65
2024/01/21 09:14:35;;;;;;;19.33;9.57;;;1.20;99.90;;;;;;5016692;28;20456;-65
2024/01/21 09:17:03;;;;;;;14.40;9.30;;;1.30;99.90;;;;;;5012646;28;20841;-65
2024/01/21 09:19:30;;;;;;;17.40;8.00;;;1.60;95.80;;;;;;5012000;28;20465;-66
2024/01/21 09:21:57;;;;;;;13.70;8.37;;;1.90;94.90;;;;;;5016573;28;20480;-65
2024/01/21 09:24:24;;;;;;;13.47;8.30;;;2.00;95.00;;;;;;5023385;28;20476;-66
2024/01/21 09:26:50;;;;;;;17.67;9.67;;;2.00;95.00;;;;;;5016408;28;20453;-65
2024/01/21 09:29:17;;;;;;;14.47;8.50;;;2.00;94.90;;;;;;5012329;28;20482;-66
2024/01/21 09:31:53;;;;;;;14.40;8.23;;;2.10;95.00;;;;;;5013443;28;20448;-66
2024/01/21 09:34:21;;;;;;;14.40;8.33;;;2.40;95.10;;;;;;5023740;28;20465;-66
2024/01/21 09:36:50;;;;;;;21.00;9.40;;;2.60;95.20;;;;;;5022277;28;20459;-66
2024/01/21 09:39:17;;;;;;;17.20;9.67;;;2.70;95.20;;;;;;5018655;28;20483;-66
2024/01/21 09:41:48;;;;;;;17.20;8.73;;;2.90;95.30;;;;;;5028355;28;20455;-66
2024/01/21 09:44:16;;;;;;;12.80;7.10;;;3.00;95.30;;;;;;5019642;28;20514;-67
2024/01/21 09:46:43;;;;;;;17.07;9.13;;;2.90;95.30;;;;;;5012083;28;20449;-65
2024/01/21 09:49:11;;;;;;;16.63;9.07;;;2.80;95.30;;;;;;5014858;28;20460;-66
2024/01/21 09:51:43;;;;;;;14.90;9.30;;;2.80;95.30;;;;;;5015804;28;20452;-65
2024/01/21 09:54:10;;;;;;;13.77;8.00;;;2.80;95.30;;;;;;5020432;28;21048;-67
2024/01/21 09:56:37;;;;;;;14.90;8.82;;;2.90;95.30;;;;;;5027525;28;20455;-65
2024/01/21 09:59:05;;;;;;;13.53;8.37;;;3.00;95.30;;;;;;5009044;28;20201;-65
2024/01/21 10:01:33;;;;;;;15.73;8.03;;;3.10;92.50;;;;;;5020875;28;20838;-66
2024/01/21 10:03:59;;;;;;;19.77;9.90;;;3.00;95.30;;;;;;5014585;28;20489;-66
2024/01/21 10:06:26;;;;;;;13.87;9.17;;;3.00;95.30;;;;;;5018708;28;20459;-65
2024/01/21 10:08:55;;;;;;;15.00;8.53;;;3.10;95.40;;;;;;5015398;28;20547;-66
2024/01/21 10:11:21;;;;;;;14.40;8.40;;;3.10;95.40;;;;;;5031950;28;20459;-66
2024/01/21 10:13:48;;;;;;;15.07;9.00;;;3.20;95.40;;;;;;5021942;28;20480;-65
2024/01/21 10:16:15;;;;;;;20.13;9.70;;;3.10;95.40;;;;;;5017229;28;20452;-66
2024/01/21 10:18:47;;;;;;;17.90;9.37;;;3.20;95.40;;;;;;5022395;28;20459;-65
2024/01/21 10:21:18;;;;;;;14.27;8.13;;;3.20;95.40;;;;;;5017008;28;20856;-66
2024/01/21 10:23:46;;;;;;;18.87;8.73;;;3.10;95.40;;;;;;5023364;28;21007;-66
2024/01/21 10:26:14;;;;;;;14.67;8.00;;;3.20;95.40;;;;;;5031646;28;20459;-65
2024/01/21 10:28:41;;;;;;;13.40;7.50;;;3.10;95.40;;;;;;5014458;28;20544;-66
2024/01/21 10:31:08;;;;;;;14.90;8.83;;;3.20;95.40;;;;;;5016313;28;20454;-68
2024/01/21 10:33:35;;;;;;;14.07;7.77;;;3.20;93.70;;;;;;5023573;28;20475;-66
2024/01/21 10:36:03;;;;;;;15.50;8.30;;;3.30;94.70;;;;;;5023795;28;20462;-66
2024/01/21 10:38:30;;;;;;;15.70;7.60;;;3.20;92.20;;;;;;5017362;28;20452;-66
2024/01/21 10:40:57;;;;;;;12.27;7.70;;;3.30;93.50;;;;;;5026209;28;20457;-65
2024/01/21 10:43:28;;;;;;;12.27;7.03;;;3.40;92.50;;;;;;5021062;28;20484;-65
2024/01/21 10:45:56;;;;;;;19.47;9.07;;;3.40;92.70;;;;;;5015581;28;20455;-65
2024/01/21 10:48:23;;;;;;;15.47;8.10;;;3.50;93.50;;;;;;5029944;28;20894;-66
2024/01/21 10:50:52;;;;;;;12.40;6.90;;;3.30;93.90;;;;;;5026951;28;20901;-66
2024/01/21 10:53:19;;;;;;;20.60;8.13;;;3.10;95.30;;;;;;5035517;28;20705;-65
2024/01/21 10:55:47;;;;;;;17.20;7.80;;;3.10;95.40;;;;;;5026781;28;20463;-66
2024/01/21 10:58:14;;;;;;;14.17;8.20;;;3.10;95.40;;;;;;5022078;28;20491;-66
2024/01/21 11:00:42;;;;;;;14.33;8.27;;;3.10;95.40;;;;;;5032001;28;20458;-66
2024/01/21 11:03:25;;;;;;;12.30;7.77;;;3.10;95.40;;;;;;5027033;28;20487;-65
2024/01/21 11:05:54;;;;;;;10.63;7.10;;;3.20;95.80;;;;;;5026765;28;20980;-66
2024/01/21 11:08:23;;;;;;;12.20;7.60;;;3.30;95.50;;;;;;5028341;28;20453;-66
2024/01/21 11:10:57;;;;;;;76.27;18.53;;;3.30;95.50;;;;;;5033372;28;20509;-66
2024/01/21 11:13:41;;;;;;;16.23;8.53;;;3.30;95.50;;;;;;5026601;28;20839;-66
2024/01/21 11:16:11;;;;;;;14.70;7.70;;;3.20;97.00;;;;;;5026768;28;20452;-66
2024/01/21 11:18:38;;;;;;;14.70;8.50;;;3.20;98.70;;;;;;5034539;28;20464;-66
2024/01/21 11:21:05;;;;;;;14.97;8.20;;;3.10;97.60;;;;;;5018583;28;20951;-66
2024/01/21 11:23:34;;;;;;;15.90;9.17;;;3.10;99.10;;;;;;5018156;28;20476;-67
2024/01/21 11:26:01;;;;;;;17.20;9.33;;;3.10;99.90;;;;;;5026205;28;20463;-66
2024/01/21 11:28:29;;;;;;;15.27;9.10;;;3.20;97.90;;;;;;5027313;28;20952;-66
2024/01/21 11:31:03;;;;;;;17.37;9.23;;;3.20;97.30;;;;;;5025110;28;20483;-66
2024/01/21 11:33:32;;;;;;;19.80;10.43;;;3.30;95.50;;;;;;5026580;28;20470;-66
2024/01/21 11:35:59;;;;;;;13.87;8.30;;;3.30;95.50;;;;;;5018285;28;20543;-66
2024/01/21 11:38:27;;;;;;;16.40;9.77;;;3.30;97.10;;;;;;5014571;28;20991;-66
2024/01/21 11:41:03;;;;;;;12.67;7.50;;;3.30;95.50;;;;;;5022758;28;20957;-65
2024/01/21 11:43:32;;;;;;;21.43;9.93;;;3.30;97.40;;;;;;5029717;28;20483;-66
2024/01/21 11:46:00;;;;;;;17.70;9.87;;;3.30;97.10;;;;;;5034112;28;20452;-66
2024/01/21 11:48:28;;;;;;;18.80;10.00;;;3.40;95.90;;;;;;5019329;28;20449;-66
2024/01/21 11:50:57;;;;;;;14.93;8.90;;;3.50;96.20;;;;;;5031095;28;20960;-66
2024/01/21 11:53:23;;;;;;;16.03;8.97;;;3.50;98.80;;;;;;5023158;28;20476;-66
2024/01/21 11:55:51;;;;;;;19.93;9.03;;;3.60;97.90;;;;;;5030847;28;20895;-66
2024/01/21 11:58:18;;;;;;;15.37;9.00;;;3.60;97.00;;;;;;5026609;28;20476;-67
2024/01/21 12:00:45;;;;;;;15.97;9.03;;;3.70;97.30;;;;;;5032932;28;20878;-67
2024/01/21 12:03:12;;;;;;;17.50;10.00;;;3.60;97.30;;;;;;5027086;28;20541;-67
2024/01/21 12:05:42;;;;;;;21.00;9.70;;;3.60;98.80;;;;;;5017376;28;20449;-66
2024/01/21 12:08:10;;;;;;;13.50;9.20;;;3.60;98.90;;;;;;5013800;28;20452;-67
2024/01/21 12:10:38;;;;;;;17.20;8.73;;;3.50;98.90;;;;;;5017718;28;20457;-67
2024/01/21 12:13:09;;;;;;;18.10;9.80;;;3.60;99.90;;;;;;5022004;28;20468;-67
2024/01/21 12:15:37;;;;;;;14.73;8.93;;;3.60;99.90;;;;;;5022008;28;20456;-67
2024/01/21 12:18:06;;;;;;;12.53;7.93;;;3.70;99.90;;;;;;5033328;28;20456;-67
2024/01/21 12:20:33;;;;;;;11.40;6.70;;;3.80;99.90;;;;;;5024498;28;20478;-67
2024/01/21 12:23:00;;;;;;;12.03;6.47;;;3.80;99.90;;;;;;5024939;28;20864;-68
2024/01/21 12:25:28;;;;;;;11.63;7.00;;;3.90;99.90;;;;;;5025548;28;20462;-68
2024/01/21 12:27:58;;;;;;;11.83;7.13;;;4.00;99.90;;;;;;5033597;28;20900;-67
2024/01/21 12:30:26;;;;;;;11.03;6.50;;;4.10;99.90;;;;;;5025190;28;21014;-68
2024/01/21 12:32:54;;;;;;;12.67;5.93;;;4.20;99.90;;;;;;5033204;28;20534;-68
2024/01/21 12:35:22;;;;;;;13.30;6.80;;;4.20;99.90;;;;;;5027056;28;20457;-67